Terminal Aerodrome Forecast
Issued by NWS Sterling, VA

Home | Current Version | Previous Version | Text Only | Print | Product List | Glossary On
Versions: 1 2 3 4 5 6 7 8 9 10 11 12 13 14 15 16 17 18 19
484
FTUS41 KLWX 281120
TAFMRB
TAF
KMRB 281120Z 2812/2912 02005KT 4SM -RA BR BKN009 OVC019
     FM281500 10005KT P6SM BKN015
     FM282100 11006KT 3SM SHRA BR VCTS BKN015CB
     FM290300 08005KT 3SM SHRA BR OVC005=

USA.gov is the U.S. government's official web portal to all federal, state and local government web resources and services.